sensor_id;sensor_type;location;lat;lon;timestamp;P1;durP1;ratioP1;P2;durP2;ratioP2
2896;SDS011;1458;49.728;9.228;2023-05-10T00:01:11;0.10;;;0.10;;
2896;SDS011;1458;49.728;9.228;2023-05-10T00:03:38;0.20;;;0.20;;
2896;SDS011;1458;49.728;9.228;2023-05-10T00:06:06;0.10;;;0.10;;
2896;SDS011;1458;49.728;9.228;2023-05-10T00:08:33;0.10;;;0.10;;
2896;SDS011;1458;49.728;9.228;2023-05-10T00:11:09;0.10;;;0.10;;
2896;SDS011;1458;49.728;9.228;2023-05-10T00:13:36;0.10;;;0.10;;
2896;SDS011;1458;49.728;9.228;2023-05-10T00:16:04;0.10;;;0.10;;
2896;SDS011;1458;49.728;9.228;2023-05-10T00:18:32;0.10;;;0.10;;
2896;SDS011;1458;49.728;9.228;2023-05-10T00:21:00;0.10;;;0.10;;
2896;SDS011;1458;49.728;9.228;2023-05-10T00:23:28;0.10;;;0.10;;
2896;SDS011;1458;49.728;9.228;2023-05-10T00:25:55;0.10;;;0.10;;
2896;SDS011;1458;49.728;9.228;2023-05-10T00:28:24;0.10;;;0.10;;
2896;SDS011;1458;49.728;9.228;2023-05-10T00:30:53;0.10;;;0.10;;
2896;SDS011;1458;49.728;9.228;2023-05-10T00:33:21;0.10;;;0.10;;
2896;SDS011;1458;49.728;9.228;2023-05-10T00:35:49;0.10;;;0.10;;
2896;SDS011;1458;49.728;9.228;2023-05-10T00:38:16;0.10;;;0.10;;
2896;SDS011;1458;49.728;9.228;2023-05-10T00:40:44;0.10;;;0.10;;
2896;SDS011;1458;49.728;9.228;2023-05-10T00:43:19;0.20;;;0.20;;
2896;SDS011;1458;49.728;9.228;2023-05-10T00:45:48;0.10;;;0.10;;
2896;SDS011;1458;49.728;9.228;2023-05-10T00:48:16;0.10;;;0.10;;
2896;SDS011;1458;49.728;9.228;2023-05-10T00:50:44;0.10;;;0.10;;
2896;SDS011;1458;49.728;9.228;2023-05-10T00:53:12;0.10;;;0.10;;
2896;SDS011;1458;49.728;9.228;2023-05-10T00:55:39;0.10;;;0.10;;
2896;SDS011;1458;49.728;9.228;2023-05-10T00:58:07;0.10;;;0.10;;
2896;SDS011;1458;49.728;9.228;2023-05-10T01:00:34;0.10;;;0.10;;
2896;SDS011;1458;49.728;9.228;2023-05-10T01:03:04;0.10;;;0.10;;
2896;SDS011;1458;49.728;9.228;2023-05-10T01:05:31;0.10;;;0.10;;
2896;SDS011;1458;49.728;9.228;2023-05-10T01:07:59;0.10;;;0.10;;
2896;SDS011;1458;49.728;9.228;2023-05-10T01:10:29;0.10;;;0.10;;
2896;SDS011;1458;49.728;9.228;2023-05-10T01:12:57;0.10;;;0.10;;
2896;SDS011;1458;49.728;9.228;2023-05-10T01:15:26;0.10;;;0.10;;
2896;SDS011;1458;49.728;9.228;2023-05-10T01:17:54;0.20;;;0.20;;
2896;SDS011;1458;49.728;9.228;2023-05-10T01:20:24;0.10;;;0.10;;
2896;SDS011;1458;49.728;9.228;2023-05-10T01:23:11;0.20;;;0.20;;
2896;SDS011;1458;49.728;9.228;2023-05-10T01:26:14;0.10;;;0.10;;
2896;SDS011;1458;49.728;9.228;2023-05-10T01:29:25;0.10;;;0.10;;
2896;SDS011;1458;49.728;9.228;2023-05-10T01:32:31;0.10;;;0.10;;
2896;SDS011;1458;49.728;9.228;2023-05-10T01:35:03;0.10;;;0.10;;
2896;SDS011;1458;49.728;9.228;2023-05-10T01:37:39;0.10;;;0.10;;
2896;SDS011;1458;49.728;9.228;2023-05-10T01:40:16;0.10;;;0.10;;
2896;SDS011;1458;49.728;9.228;2023-05-10T01:42:51;0.10;;;0.10;;
2896;SDS011;1458;49.728;9.228;2023-05-10T01:45:24;0.20;;;0.20;;
2896;SDS011;1458;49.728;9.228;2023-05-10T01:48:01;0.20;;;0.20;;
2896;SDS011;1458;49.728;9.228;2023-05-10T01:50:34;0.10;;;0.10;;
2896;SDS011;1458;49.728;9.228;2023-05-10T01:53:05;0.13;;;0.13;;
2896;SDS011;1458;49.728;9.228;2023-05-10T01:55:39;0.10;;;0.10;;
2896;SDS011;1458;49.728;9.228;2023-05-10T01:58:14;0.10;;;0.10;;
2896;SDS011;1458;49.728;9.228;2023-05-10T02:00:47;0.10;;;0.10;;
2896;SDS011;1458;49.728;9.228;2023-05-10T02:03:19;0.10;;;0.10;;
2896;SDS011;1458;49.728;9.228;2023-05-10T02:05:50;0.20;;;0.20;;
2896;SDS011;1458;49.728;9.228;2023-05-10T02:08:20;0.10;;;0.10;;
2896;SDS011;1458;49.728;9.228;2023-05-10T02:10:50;0.10;;;0.10;;
2896;SDS011;1458;49.728;9.228;2023-05-10T02:13:21;0.10;;;0.10;;
2896;SDS011;1458;49.728;9.228;2023-05-10T02:15:50;0.10;;;0.10;;
2896;SDS011;1458;49.728;9.228;2023-05-10T02:18:21;0.10;;;0.10;;
2896;SDS011;1458;49.728;9.228;2023-05-10T02:20:50;0.20;;;0.20;;
2896;SDS011;1458;49.728;9.228;2023-05-10T02:23:20;0.10;;;0.10;;
2896;SDS011;1458;49.728;9.228;2023-05-10T02:25:49;0.10;;;0.10;;
2896;SDS011;1458;49.728;9.228;2023-05-10T02:28:19;0.10;;;0.10;;
2896;SDS011;1458;49.728;9.228;2023-05-10T02:30:50;0.10;;;0.10;;
2896;SDS011;1458;49.728;9.228;2023-05-10T02:33:18;0.10;;;0.10;;
2896;SDS011;1458;49.728;9.228;2023-05-10T02:35:48;0.10;;;0.10;;
2896;SDS011;1458;49.728;9.228;2023-05-10T02:38:18;0.10;;;0.10;;
2896;SDS011;1458;49.728;9.228;2023-05-10T02:40:47;0.10;;;0.10;;
2896;SDS011;1458;49.728;9.228;2023-05-10T02:43:15;0.10;;;0.10;;
2896;SDS011;1458;49.728;9.228;2023-05-10T02:45:45;0.10;;;0.10;;
2896;SDS011;1458;49.728;9.228;2023-05-10T02:48:15;0.10;;;0.10;;
2896;SDS011;1458;49.728;9.228;2023-05-10T02:50:44;0.10;;;0.10;;
2896;SDS011;1458;49.728;9.228;2023-05-10T02:53:18;0.10;;;0.10;;
2896;SDS011;1458;49.728;9.228;2023-05-10T02:55:52;0.10;;;0.10;;
2896;SDS011;1458;49.728;9.228;2023-05-10T02:58:29;0.10;;;0.10;;
2896;SDS011;1458;49.728;9.228;2023-05-10T03:00:56;0.10;;;0.10;;
2896;SDS011;1458;49.728;9.228;2023-05-10T03:03:24;0.10;;;0.10;;
2896;SDS011;1458;49.728;9.228;2023-05-10T03:05:53;0.10;;;0.10;;
2896;SDS011;1458;49.728;9.228;2023-05-10T03:08:21;0.13;;;0.13;;
2896;SDS011;1458;49.728;9.228;2023-05-10T03:10:53;0.10;;;0.10;;
2896;SDS011;1458;49.728;9.228;2023-05-10T03:13:39;0.20;;;0.20;;
2896;SDS011;1458;49.728;9.228;2023-05-10T03:16:20;0.10;;;0.10;;
2896;SDS011;1458;49.728;9.228;2023-05-10T03:18:54;0.20;;;0.20;;
2896;SDS011;1458;49.728;9.228;2023-05-10T03:21:45;0.20;;;0.20;;
2896;SDS011;1458;49.728;9.228;2023-05-10T03:24:18;0.20;;;0.20;;
2896;SDS011;1458;49.728;9.228;2023-05-10T03:26:49;0.10;;;0.10;;
2896;SDS011;1458;49.728;9.228;2023-05-10T03:29:17;0.20;;;0.20;;
2896;SDS011;1458;49.728;9.228;2023-05-10T03:31:45;0.10;;;0.10;;
2896;SDS011;1458;49.728;9.228;2023-05-10T03:34:13;0.10;;;0.10;;
2896;SDS011;1458;49.728;9.228;2023-05-10T03:36:41;0.10;;;0.10;;
2896;SDS011;1458;49.728;9.228;2023-05-10T03:39:10;0.10;;;0.10;;
2896;SDS011;1458;49.728;9.228;2023-05-10T03:41:37;0.10;;;0.10;;
2896;SDS011;1458;49.728;9.228;2023-05-10T03:44:05;0.10;;;0.10;;
2896;SDS011;1458;49.728;9.228;2023-05-10T03:46:32;0.20;;;0.20;;
2896;SDS011;1458;49.728;9.228;2023-05-10T03:49:01;0.10;;;0.10;;
2896;SDS011;1458;49.728;9.228;2023-05-10T03:51:28;0.10;;;0.10;;
2896;SDS011;1458;49.728;9.228;2023-05-10T03:53:56;0.10;;;0.10;;
2896;SDS011;1458;49.728;9.228;2023-05-10T03:56:26;0.10;;;0.10;;
2896;SDS011;1458;49.728;9.228;2023-05-10T03:58:53;0.20;;;0.20;;
2896;SDS011;1458;49.728;9.228;2023-05-10T04:01:20;0.10;;;0.10;;
2896;SDS011;1458;49.728;9.228;2023-05-10T04:03:48;0.13;;;0.13;;
2896;SDS011;1458;49.728;9.228;2023-05-10T04:06:15;0.10;;;0.10;;
2896;SDS011;1458;49.728;9.228;2023-05-10T04:08:43;0.10;;;0.10;;
2896;SDS011;1458;49.728;9.228;2023-05-10T04:11:10;0.10;;;0.10;;
2896;SDS011;1458;49.728;9.228;2023-05-10T04:13:40;0.20;;;0.20;;
2896;SDS011;1458;49.728;9.228;2023-05-10T04:16:08;0.10;;;0.10;;
2896;SDS011;1458;49.728;9.228;2023-05-10T04:18:35;0.10;;;0.10;;
2896;SDS011;1458;49.728;9.228;2023-05-10T04:21:03;0.10;;;0.10;;
2896;SDS011;1458;49.728;9.228;2023-05-10T04:23:30;0.20;;;0.20;;
2896;SDS011;1458;49.728;9.228;2023-05-10T04:26:01;0.10;;;0.10;;
2896;SDS011;1458;49.728;9.228;2023-05-10T04:28:29;0.10;;;0.10;;
2896;SDS011;1458;49.728;9.228;2023-05-10T04:31:01;0.10;;;0.10;;
2896;SDS011;1458;49.728;9.228;2023-05-10T04:33:30;0.10;;;0.10;;
2896;SDS011;1458;49.728;9.228;2023-05-10T04:35:57;0.10;;;0.10;;
2896;SDS011;1458;49.728;9.228;2023-05-10T04:38:25;0.10;;;0.10;;
2896;SDS011;1458;49.728;9.228;2023-05-10T04:40:52;0.10;;;0.10;;
2896;SDS011;1458;49.728;9.228;2023-05-10T04:43:20;0.10;;;0.10;;
2896;SDS011;1458;49.728;9.228;2023-05-10T04:45:47;0.10;;;0.10;;
2896;SDS011;1458;49.728;9.228;2023-05-10T04:48:16;0.10;;;0.10;;
2896;SDS011;1458;49.728;9.228;2023-05-10T04:50:44;0.10;;;0.10;;
2896;SDS011;1458;49.728;9.228;2023-05-10T04:53:11;0.10;;;0.10;;
2896;SDS011;1458;49.728;9.228;2023-05-10T04:55:39;0.10;;;0.10;;
2896;SDS011;1458;49.728;9.228;2023-05-10T04:58:06;0.10;;;0.10;;
2896;SDS011;1458;49.728;9.228;2023-05-10T05:00:33;0.10;;;0.10;;
2896;SDS011;1458;49.728;9.228;2023-05-10T05:03:01;0.10;;;0.10;;
2896;SDS011;1458;49.728;9.228;2023-05-10T05:05:30;0.10;;;0.10;;
2896;SDS011;1458;49.728;9.228;2023-05-10T05:07:58;0.10;;;0.10;;
2896;SDS011;1458;49.728;9.228;2023-05-10T05:10:25;0.20;;;0.20;;
2896;SDS011;1458;49.728;9.228;2023-05-10T05:12:53;0.10;;;0.10;;
2896;SDS011;1458;49.728;9.228;2023-05-10T05:15:20;0.17;;;0.17;;
2896;SDS011;1458;49.728;9.228;2023-05-10T05:17:48;0.10;;;0.10;;
2896;SDS011;1458;49.728;9.228;2023-05-10T05:20:15;0.20;;;0.20;;
2896;SDS011;1458;49.728;9.228;2023-05-10T05:22:45;0.10;;;0.10;;
2896;SDS011;1458;49.728;9.228;2023-05-10T05:25:12;0.10;;;0.10;;
2896;SDS011;1458;49.728;9.228;2023-05-10T05:27:40;0.10;;;0.10;;
2896;SDS011;1458;49.728;9.228;2023-05-10T05:30:08;0.10;;;0.10;;
2896;SDS011;1458;49.728;9.228;2023-05-10T05:32:36;0.10;;;0.10;;
2896;SDS011;1458;49.728;9.228;2023-05-10T05:35:04;0.10;;;0.10;;
2896;SDS011;1458;49.728;9.228;2023-05-10T05:37:32;0.10;;;0.10;;
2896;SDS011;1458;49.728;9.228;2023-05-10T05:40:01;0.10;;;0.10;;
2896;SDS011;1458;49.728;9.228;2023-05-10T05:42:28;0.10;;;0.10;;
2896;SDS011;1458;49.728;9.228;2023-05-10T05:44:57;0.10;;;0.10;;
2896;SDS011;1458;49.728;9.228;2023-05-10T05:47:25;0.10;;;0.10;;
2896;SDS011;1458;49.728;9.228;2023-05-10T05:49:52;0.10;;;0.10;;
2896;SDS011;1458;49.728;9.228;2023-05-10T05:52:20;0.10;;;0.10;;
2896;SDS011;1458;49.728;9.228;2023-05-10T05:54:48;0.10;;;0.10;;
2896;SDS011;1458;49.728;9.228;2023-05-10T05:57:16;0.13;;;0.13;;
2896;SDS011;1458;49.728;9.228;2023-05-10T05:59:44;0.10;;;0.10;;
2896;SDS011;1458;49.728;9.228;2023-05-10T06:02:11;0.10;;;0.10;;
2896;SDS011;1458;49.728;9.228;2023-05-10T06:04:39;0.10;;;0.10;;
2896;SDS011;1458;49.728;9.228;2023-05-10T06:07:06;0.10;;;0.10;;
2896;SDS011;1458;49.728;9.228;2023-05-10T06:09:34;0.10;;;0.10;;
2896;SDS011;1458;49.728;9.228;2023-05-10T06:12:01;0.10;;;0.10;;
2896;SDS011;1458;49.728;9.228;2023-05-10T06:14:30;0.10;;;0.10;;
2896;SDS011;1458;49.728;9.228;2023-05-10T06:16:58;0.10;;;0.10;;
2896;SDS011;1458;49.728;9.228;2023-05-10T06:19:25;0.20;;;0.20;;
2896;SDS011;1458;49.728;9.228;2023-05-10T06:21:53;0.20;;;0.20;;
2896;SDS011;1458;49.728;9.228;2023-05-10T06:24:21;0.23;;;0.23;;
2896;SDS011;1458;49.728;9.228;2023-05-10T06:26:48;0.10;;;0.10;;
2896;SDS011;1458;49.728;9.228;2023-05-10T06:29:16;0.10;;;0.10;;
2896;SDS011;1458;49.728;9.228;2023-05-10T06:31:45;0.20;;;0.20;;
2896;SDS011;1458;49.728;9.228;2023-05-10T06:34:13;0.20;;;0.20;;
2896;SDS011;1458;49.728;9.228;2023-05-10T06:36:40;0.17;;;0.17;;
2896;SDS011;1458;49.728;9.228;2023-05-10T06:39:08;0.20;;;0.20;;
2896;SDS011;1458;49.728;9.228;2023-05-10T06:41:36;0.20;;;0.20;;
2896;SDS011;1458;49.728;9.228;2023-05-10T06:44:04;0.20;;;0.20;;
2896;SDS011;1458;49.728;9.228;2023-05-10T06:46:31;0.20;;;0.20;;
2896;SDS011;1458;49.728;9.228;2023-05-10T06:49:00;0.10;;;0.10;;
2896;SDS011;1458;49.728;9.228;2023-05-10T06:51:27;0.10;;;0.10;;
2896;SDS011;1458;49.728;9.228;2023-05-10T06:53:55;0.20;;;0.20;;
2896;SDS011;1458;49.728;9.228;2023-05-10T06:56:23;0.20;;;0.20;;
2896;SDS011;1458;49.728;9.228;2023-05-10T06:58:50;0.20;;;0.20;;
2896;SDS011;1458;49.728;9.228;2023-05-10T07:01:17;0.30;;;0.30;;
2896;SDS011;1458;49.728;9.228;2023-05-10T07:03:45;0.20;;;0.20;;
2896;SDS011;1458;49.728;9.228;2023-05-10T07:06:14;0.23;;;0.23;;
2896;SDS011;1458;49.728;9.228;2023-05-10T07:08:41;0.20;;;0.20;;
2896;SDS011;1458;49.728;9.228;2023-05-10T07:11:09;0.20;;;0.20;;
2896;SDS011;1458;49.728;9.228;2023-05-10T07:13:36;0.30;;;0.30;;
2896;SDS011;1458;49.728;9.228;2023-05-10T07:16:06;0.40;;;0.40;;
2896;SDS011;1458;49.728;9.228;2023-05-10T07:18:34;0.40;;;0.40;;
2896;SDS011;1458;49.728;9.228;2023-05-10T07:21:01;0.30;;;0.30;;
2896;SDS011;1458;49.728;9.228;2023-05-10T07:23:30;0.50;;;0.50;;
2896;SDS011;1458;49.728;9.228;2023-05-10T07:25:58;0.40;;;0.40;;
2896;SDS011;1458;49.728;9.228;2023-05-10T07:28:27;0.40;;;0.40;;
2896;SDS011;1458;49.728;9.228;2023-05-10T07:30:54;0.50;;;0.50;;
2896;SDS011;1458;49.728;9.228;2023-05-10T07:33:22;0.40;;;0.40;;
2896;SDS011;1458;49.728;9.228;2023-05-10T07:35:50;0.60;;;0.60;;
2896;SDS011;1458;49.728;9.228;2023-05-10T07:38:17;0.40;;;0.40;;
2896;SDS011;1458;49.728;9.228;2023-05-10T07:40:46;0.40;;;0.40;;
2896;SDS011;1458;49.728;9.228;2023-05-10T07:43:13;0.40;;;0.40;;
2896;SDS011;1458;49.728;9.228;2023-05-10T07:45:41;0.40;;;0.40;;
2896;SDS011;1458;49.728;9.228;2023-05-10T07:48:08;0.30;;;0.30;;
2896;SDS011;1458;49.728;9.228;2023-05-10T07:50:36;0.30;;;0.30;;
2896;SDS011;1458;49.728;9.228;2023-05-10T07:53:03;0.40;;;0.40;;
2896;SDS011;1458;49.728;9.228;2023-05-10T07:55:31;0.30;;;0.30;;
2896;SDS011;1458;49.728;9.228;2023-05-10T07:57:59;0.37;;;0.37;;
2896;SDS011;1458;49.728;9.228;2023-05-10T08:00:27;0.30;;;0.30;;
2896;SDS011;1458;49.728;9.228;2023-05-10T08:02:54;0.40;;;0.40;;
2896;SDS011;1458;49.728;9.228;2023-05-10T08:05:22;0.30;;;0.30;;
2896;SDS011;1458;49.728;9.228;2023-05-10T08:07:49;0.50;;;0.50;;
2896;SDS011;1458;49.728;9.228;2023-05-10T08:10:17;0.40;;;0.40;;
2896;SDS011;1458;49.728;9.228;2023-05-10T08:12:44;0.40;;;0.40;;
2896;SDS011;1458;49.728;9.228;2023-05-10T08:15:13;0.33;;;0.33;;
2896;SDS011;1458;49.728;9.228;2023-05-10T08:17:40;0.30;;;0.30;;
2896;SDS011;1458;49.728;9.228;2023-05-10T08:20:08;0.50;;;0.50;;
2896;SDS011;1458;49.728;9.228;2023-05-10T08:22:38;0.43;;;0.43;;
2896;SDS011;1458;49.728;9.228;2023-05-10T08:25:05;0.50;;;0.50;;
2896;SDS011;1458;49.728;9.228;2023-05-10T08:27:33;0.50;;;0.50;;
2896;SDS011;1458;49.728;9.228;2023-05-10T08:30:01;0.50;;;0.50;;
2896;SDS011;1458;49.728;9.228;2023-05-10T08:32:30;0.60;;;0.60;;
2896;SDS011;1458;49.728;9.228;2023-05-10T08:34:57;0.40;;;0.40;;
2896;SDS011;1458;49.728;9.228;2023-05-10T08:37:25;0.40;;;0.40;;
2896;SDS011;1458;49.728;9.228;2023-05-10T08:39:52;0.50;;;0.50;;
2896;SDS011;1458;49.728;9.228;2023-05-10T08:42:20;0.60;;;0.60;;
2896;SDS011;1458;49.728;9.228;2023-05-10T08:44:49;0.60;;;0.60;;
2896;SDS011;1458;49.728;9.228;2023-05-10T08:47:17;0.60;;;0.60;;
2896;SDS011;1458;49.728;9.228;2023-05-10T08:49:47;0.80;;;0.80;;
2896;SDS011;1458;49.728;9.228;2023-05-10T08:52:16;0.80;;;0.80;;
2896;SDS011;1458;49.728;9.228;2023-05-10T08:54:45;1.07;;;1.07;;
2896;SDS011;1458;49.728;9.228;2023-05-10T08:57:14;1.20;;;1.20;;
2896;SDS011;1458;49.728;9.228;2023-05-10T08:59:41;1.20;;;1.20;;
2896;SDS011;1458;49.728;9.228;2023-05-10T09:02:09;1.10;;;1.10;;
2896;SDS011;1458;49.728;9.228;2023-05-10T09:04:38;1.00;;;1.00;;
2896;SDS011;1458;49.728;9.228;2023-05-10T09:07:07;1.30;;;1.30;;
2896;SDS011;1458;49.728;9.228;2023-05-10T09:09:34;1.37;;;1.37;;
2896;SDS011;1458;49.728;9.228;2023-05-10T09:12:03;1.50;;;1.50;;
2896;SDS011;1458;49.728;9.228;2023-05-10T09:14:32;1.80;;;1.80;;
2896;SDS011;1458;49.728;9.228;2023-05-10T09:17:01;1.60;;;1.60;;
2896;SDS011;1458;49.728;9.228;2023-05-10T09:19:29;1.60;;;1.60;;
2896;SDS011;1458;49.728;9.228;2023-05-10T09:21:56;1.70;;;1.70;;
2896;SDS011;1458;49.728;9.228;2023-05-10T09:24:26;1.30;;;1.30;;
2896;SDS011;1458;49.728;9.228;2023-05-10T09:26:56;1.20;;;1.20;;
2896;SDS011;1458;49.728;9.228;2023-05-10T09:29:25;1.60;;;1.60;;
2896;SDS011;1458;49.728;9.228;2023-05-10T09:31:52;1.40;;;1.40;;
2896;SDS011;1458;49.728;9.228;2023-05-10T09:34:22;1.50;;;1.50;;
2896;SDS011;1458;49.728;9.228;2023-05-10T09:36:56;1.70;;;1.70;;
2896;SDS011;1458;49.728;9.228;2023-05-10T09:39:31;1.50;;;1.50;;
2896;SDS011;1458;49.728;9.228;2023-05-10T09:42:00;1.80;;;1.80;;
2896;SDS011;1458;49.728;9.228;2023-05-10T09:44:30;1.90;;;1.90;;
2896;SDS011;1458;49.728;9.228;2023-05-10T09:46:58;2.30;;;2.30;;
2896;SDS011;1458;49.728;9.228;2023-05-10T09:49:26;2.90;;;2.90;;
2896;SDS011;1458;49.728;9.228;2023-05-10T09:51:59;3.40;;;3.40;;
2896;SDS011;1458;49.728;9.228;2023-05-10T09:54:28;3.30;;;3.30;;
2896;SDS011;1458;49.728;9.228;2023-05-10T09:56:58;2.90;;;2.90;;
2896;SDS011;1458;49.728;9.228;2023-05-10T09:59:26;3.20;;;3.20;;
2896;SDS011;1458;49.728;9.228;2023-05-10T10:01:55;3.33;;;3.33;;
2896;SDS011;1458;49.728;9.228;2023-05-10T10:04:23;4.03;;;4.03;;
2896;SDS011;1458;49.728;9.228;2023-05-10T10:06:58;3.60;;;3.60;;
2896;SDS011;1458;49.728;9.228;2023-05-10T10:09:27;3.23;;;3.23;;
2896;SDS011;1458;49.728;9.228;2023-05-10T10:11:56;3.30;;;3.30;;
2896;SDS011;1458;49.728;9.228;2023-05-10T10:14:24;3.53;;;3.53;;
2896;SDS011;1458;49.728;9.228;2023-05-10T10:16:52;3.90;;;3.90;;
2896;SDS011;1458;49.728;9.228;2023-05-10T10:19:20;4.10;;;4.10;;
2896;SDS011;1458;49.728;9.228;2023-05-10T10:21:49;4.50;;;4.50;;
2896;SDS011;1458;49.728;9.228;2023-05-10T10:24:17;6.17;;;6.17;;
2896;SDS011;1458;49.728;9.228;2023-05-10T10:26:44;6.20;;;6.20;;
2896;SDS011;1458;49.728;9.228;2023-05-10T10:29:21;6.30;;;6.30;;
2896;SDS011;1458;49.728;9.228;2023-05-10T10:31:57;7.00;;;6.90;;
2896;SDS011;1458;49.728;9.228;2023-05-10T10:34:36;6.00;;;6.00;;
2896;SDS011;1458;49.728;9.228;2023-05-10T10:37:05;6.70;;;6.60;;
2896;SDS011;1458;49.728;9.228;2023-05-10T10:39:33;7.07;;;6.97;;
2896;SDS011;1458;49.728;9.228;2023-05-10T10:42:02;7.30;;;7.20;;
2896;SDS011;1458;49.728;9.228;2023-05-10T10:44:38;7.17;;;7.07;;
2896;SDS011;1458;49.728;9.228;2023-05-10T10:47:10;7.00;;;6.90;;
2896;SDS011;1458;49.728;9.228;2023-05-10T10:50:02;6.40;;;6.40;;
2896;SDS011;1458;49.728;9.228;2023-05-10T10:52:32;6.53;;;6.47;;
2896;SDS011;1458;49.728;9.228;2023-05-10T10:55:01;6.10;;;6.10;;
2896;SDS011;1458;49.728;9.228;2023-05-10T10:57:32;6.10;;;6.10;;
2896;SDS011;1458;49.728;9.228;2023-05-10T11:00:21;6.70;;;6.63;;
2896;SDS011;1458;49.728;9.228;2023-05-10T11:02:52;5.40;;;5.40;;
2896;SDS011;1458;49.728;9.228;2023-05-10T11:05:25;5.17;;;5.17;;
2896;SDS011;1458;49.728;9.228;2023-05-10T11:08:09;4.97;;;4.97;;
2896;SDS011;1458;49.728;9.228;2023-05-10T11:10:49;5.20;;;5.20;;
2896;SDS011;1458;49.728;9.228;2023-05-10T11:13:37;5.37;;;5.37;;
2896;SDS011;1458;49.728;9.228;2023-05-10T11:16:15;6.20;;;6.20;;
2896;SDS011;1458;49.728;9.228;2023-05-10T11:18:57;6.87;;;6.77;;
2896;SDS011;1458;49.728;9.228;2023-05-10T11:21:28;6.77;;;6.67;;
2896;SDS011;1458;49.728;9.228;2023-05-10T11:23:57;6.80;;;6.70;;
2896;SDS011;1458;49.728;9.228;2023-05-10T11:26:25;7.20;;;7.10;;
2896;SDS011;1458;49.728;9.228;2023-05-10T11:28:57;7.00;;;6.90;;
2896;SDS011;1458;49.728;9.228;2023-05-10T11:31:27;6.80;;;6.70;;
2896;SDS011;1458;49.728;9.228;2023-05-10T11:33:55;6.33;;;6.33;;
2896;SDS011;1458;49.728;9.228;2023-05-10T11:36:25;6.17;;;6.17;;
2896;SDS011;1458;49.728;9.228;2023-05-10T11:38:55;6.13;;;6.13;;
2896;SDS011;1458;49.728;9.228;2023-05-10T11:41:23;6.17;;;6.17;;
2896;SDS011;1458;49.728;9.228;2023-05-10T11:43:52;6.07;;;6.07;;
2896;SDS011;1458;49.728;9.228;2023-05-10T11:46:22;5.50;;;5.50;;
2896;SDS011;1458;49.728;9.228;2023-05-10T11:48:59;5.20;;;5.20;;
2896;SDS011;1458;49.728;9.228;2023-05-10T11:51:32;5.20;;;5.20;;
2896;SDS011;1458;49.728;9.228;2023-05-10T11:54:05;4.30;;;4.30;;
2896;SDS011;1458;49.728;9.228;2023-05-10T11:56:34;4.57;;;4.57;;
2896;SDS011;1458;49.728;9.228;2023-05-10T11:59:03;4.47;;;4.47;;
2896;SDS011;1458;49.728;9.228;2023-05-10T12:01:30;4.17;;;4.17;;
2896;SDS011;1458;49.728;9.228;2023-05-10T12:04:00;4.97;;;4.97;;
2896;SDS011;1458;49.728;9.228;2023-05-10T12:06:28;4.33;;;4.33;;
2896;SDS011;1458;49.728;9.228;2023-05-10T12:08:58;4.40;;;4.40;;
2896;SDS011;1458;49.728;9.228;2023-05-10T12:11:25;5.20;;;5.20;;
2896;SDS011;1458;49.728;9.228;2023-05-10T12:13:55;4.47;;;4.47;;
2896;SDS011;1458;49.728;9.228;2023-05-10T12:16:23;4.40;;;4.40;;
2896;SDS011;1458;49.728;9.228;2023-05-10T12:18:56;5.00;;;5.00;;
2896;SDS011;1458;49.728;9.228;2023-05-10T12:21:27;5.27;;;5.27;;
2896;SDS011;1458;49.728;9.228;2023-05-10T12:23:58;5.67;;;5.67;;
2896;SDS011;1458;49.728;9.228;2023-05-10T12:26:28;5.10;;;5.10;;
2896;SDS011;1458;49.728;9.228;2023-05-10T12:29:11;5.10;;;5.10;;
2896;SDS011;1458;49.728;9.228;2023-05-10T12:31:50;5.20;;;5.20;;
2896;SDS011;1458;49.728;9.228;2023-05-10T12:34:24;5.30;;;5.30;;
2896;SDS011;1458;49.728;9.228;2023-05-10T12:36:53;5.30;;;5.30;;
2896;SDS011;1458;49.728;9.228;2023-05-10T12:39:21;5.50;;;5.50;;
2896;SDS011;1458;49.728;9.228;2023-05-10T12:41:49;5.53;;;5.53;;
2896;SDS011;1458;49.728;9.228;2023-05-10T12:44:17;5.37;;;5.37;;
2896;SDS011;1458;49.728;9.228;2023-05-10T12:46:45;5.43;;;5.43;;
2896;SDS011;1458;49.728;9.228;2023-05-10T12:49:12;5.00;;;5.00;;
2896;SDS011;1458;49.728;9.228;2023-05-10T12:51:41;4.70;;;4.70;;
2896;SDS011;1458;49.728;9.228;2023-05-10T12:54:09;4.50;;;4.50;;
2896;SDS011;1458;49.728;9.228;2023-05-10T12:56:37;4.50;;;4.50;;
2896;SDS011;1458;49.728;9.228;2023-05-10T12:59:06;4.60;;;4.60;;
2896;SDS011;1458;49.728;9.228;2023-05-10T13:01:33;4.40;;;4.40;;
2896;SDS011;1458;49.728;9.228;2023-05-10T13:04:00;4.50;;;4.50;;
2896;SDS011;1458;49.728;9.228;2023-05-10T13:06:28;4.80;;;4.80;;
2896;SDS011;1458;49.728;9.228;2023-05-10T13:08:57;4.67;;;4.67;;
2896;SDS011;1458;49.728;9.228;2023-05-10T13:11:24;5.37;;;5.37;;
2896;SDS011;1458;49.728;9.228;2023-05-10T13:13:52;4.80;;;4.80;;
2896;SDS011;1458;49.728;9.228;2023-05-10T13:16:20;6.17;;;6.17;;
2896;SDS011;1458;49.728;9.228;2023-05-10T13:18:48;6.30;;;6.30;;
2896;SDS011;1458;49.728;9.228;2023-05-10T13:21:15;6.90;;;6.80;;
2896;SDS011;1458;49.728;9.228;2023-05-10T13:23:43;7.20;;;7.10;;
2896;SDS011;1458;49.728;9.228;2023-05-10T13:26:13;7.00;;;6.90;;
2896;SDS011;1458;49.728;9.228;2023-05-10T13:28:40;7.50;;;7.40;;
2896;SDS011;1458;49.728;9.228;2023-05-10T13:31:08;6.80;;;6.70;;
2896;SDS011;1458;49.728;9.228;2023-05-10T13:33:35;7.60;;;7.50;;
2896;SDS011;1458;49.728;9.228;2023-05-10T13:36:06;7.50;;;7.40;;
2896;SDS011;1458;49.728;9.228;2023-05-10T13:38:34;7.50;;;7.40;;
2896;SDS011;1458;49.728;9.228;2023-05-10T13:41:01;8.20;;;8.10;;
2896;SDS011;1458;49.728;9.228;2023-05-10T13:43:30;8.90;;;8.70;;
2896;SDS011;1458;49.728;9.228;2023-05-10T13:45:58;8.90;;;8.70;;
2896;SDS011;1458;49.728;9.228;2023-05-10T13:48:26;9.20;;;9.00;;
2896;SDS011;1458;49.728;9.228;2023-05-10T13:50:54;9.50;;;9.30;;
2896;SDS011;1458;49.728;9.228;2023-05-10T13:53:22;9.50;;;9.30;;
2896;SDS011;1458;49.728;9.228;2023-05-10T13:55:49;9.80;;;9.60;;
2896;SDS011;1458;49.728;9.228;2023-05-10T13:58:17;10.10;;;9.90;;
2896;SDS011;1458;49.728;9.228;2023-05-10T14:00:46;9.67;;;9.47;;
2896;SDS011;1458;49.728;9.228;2023-05-10T14:03:13;10.00;;;9.80;;
2896;SDS011;1458;49.728;9.228;2023-05-10T14:05:40;9.93;;;9.73;;
2896;SDS011;1458;49.728;9.228;2023-05-10T14:08:08;8.90;;;8.70;;
2896;SDS011;1458;49.728;9.228;2023-05-10T14:10:36;8.80;;;8.60;;
2896;SDS011;1458;49.728;9.228;2023-05-10T14:13:03;8.70;;;8.50;;
2896;SDS011;1458;49.728;9.228;2023-05-10T14:15:31;8.97;;;8.77;;
2896;SDS011;1458;49.728;9.228;2023-05-10T14:18:00;8.47;;;8.37;;
2896;SDS011;1458;49.728;9.228;2023-05-10T14:20:27;7.80;;;7.70;;
2896;SDS011;1458;49.728;9.228;2023-05-10T14:22:56;7.70;;;7.60;;
2896;SDS011;1458;49.728;9.228;2023-05-10T14:25:24;8.00;;;7.90;;
2896;SDS011;1458;49.728;9.228;2023-05-10T14:27:51;7.70;;;7.60;;
2896;SDS011;1458;49.728;9.228;2023-05-10T14:30:19;7.47;;;7.37;;
2896;SDS011;1458;49.728;9.228;2023-05-10T14:32:47;7.70;;;7.60;;
2896;SDS011;1458;49.728;9.228;2023-05-10T14:35:16;7.80;;;7.70;;
2896;SDS011;1458;49.728;9.228;2023-05-10T14:37:43;8.10;;;8.00;;
2896;SDS011;1458;49.728;9.228;2023-05-10T14:40:11;7.70;;;7.60;;
2896;SDS011;1458;49.728;9.228;2023-05-10T14:42:40;7.83;;;7.73;;
2896;SDS011;1458;49.728;9.228;2023-05-10T14:45:09;7.53;;;7.43;;
2896;SDS011;1458;49.728;9.228;2023-05-10T14:47:37;9.10;;;8.90;;
2896;SDS011;1458;49.728;9.228;2023-05-10T14:50:05;9.90;;;9.70;;
2896;SDS011;1458;49.728;9.228;2023-05-10T14:52:35;10.03;;;9.83;;
2896;SDS011;1458;49.728;9.228;2023-05-10T14:55:02;9.20;;;9.00;;
2896;SDS011;1458;49.728;9.228;2023-05-10T14:57:32;9.93;;;9.73;;
2896;SDS011;1458;49.728;9.228;2023-05-10T14:59:59;10.10;;;9.90;;
2896;SDS011;1458;49.728;9.228;2023-05-10T15:02:27;9.67;;;9.47;;
2896;SDS011;1458;49.728;9.228;2023-05-10T15:04:55;9.10;;;8.90;;
2896;SDS011;1458;49.728;9.228;2023-05-10T15:07:23;9.30;;;9.10;;
2896;SDS011;1458;49.728;9.228;2023-05-10T15:09:52;9.00;;;8.80;;
2896;SDS011;1458;49.728;9.228;2023-05-10T15:12:21;9.17;;;8.97;;
2896;SDS011;1458;49.728;9.228;2023-05-10T15:14:49;8.80;;;8.60;;
2896;SDS011;1458;49.728;9.228;2023-05-10T15:17:16;8.83;;;8.63;;
2896;SDS011;1458;49.728;9.228;2023-05-10T15:19:44;8.30;;;8.20;;
2896;SDS011;1458;49.728;9.228;2023-05-10T15:22:11;8.80;;;8.60;;
2896;SDS011;1458;49.728;9.228;2023-05-10T15:24:38;8.20;;;8.10;;
2896;SDS011;1458;49.728;9.228;2023-05-10T15:27:07;8.20;;;8.10;;
2896;SDS011;1458;49.728;9.228;2023-05-10T15:29:35;8.20;;;8.10;;